Salmon Cove, Canada
Current Conditions -  °F | °C
As of 6:37 AM on Saturday 20 Dec 2014 (Local Time) from CYYT Reporting Station
Overcast Overcast  
Wind Chill: 19°   Ceiling: 1500
Heat Index: 32°   Visibility: 15mi
Dew Point: 28°   Wind: 23mph
Humidity: 87%   Direction: 30°NNE
Pressure: 29.96"   Gusts: 35mph
Location:  47.78°N, 53.17°W
Report Text: CYYT 200937Z 03020G30KT 15SM OVC015 M00/M02 A2996 RMK SC8 PRESRR SLP152
Loading
Personal Weather Stations






























Interactive Weather Map New forecast layout! Learn more

10-Day Weather Forecast

Advertisements
Track Severe Weather on mobile